createdAt,value
2018-08-30T00:02:11.777Z,25.30
2018-08-30T00:04:53.058Z,25.30
2018-08-30T00:07:33.642Z,25.30
2018-08-30T00:10:14.309Z,25.20
2018-08-30T00:12:55.793Z,25.20
2018-08-30T00:15:37.069Z,25.20
2018-08-30T00:18:17.928Z,25.20
2018-08-30T00:20:58.603Z,25.20
2018-08-30T00:23:39.989Z,25.20
2018-08-30T00:26:20.741Z,25.20
2018-08-30T00:29:02.290Z,25.10
2018-08-30T00:31:43.804Z,25.10
2018-08-30T00:34:25.139Z,25.20
2018-08-30T00:37:05.818Z,25.10
2018-08-30T00:39:46.513Z,25.20
2018-08-30T00:42:27.182Z,25.20
2018-08-30T00:45:07.740Z,25.20
2018-08-30T00:47:49.843Z,25.20
2018-08-30T00:50:30.967Z,25.20
2018-08-30T00:53:11.682Z,25.20
2018-08-30T00:55:53.023Z,25.20
2018-08-30T00:58:33.679Z,25.20
2018-08-30T01:01:14.277Z,25.30
2018-08-30T01:03:54.877Z,25.30
2018-08-30T01:06:36.383Z,25.40
2018-08-30T01:09:17.042Z,25.40
2018-08-30T01:11:58.548Z,25.50
2018-08-30T01:14:39.642Z,25.50
2018-08-30T01:17:20.741Z,25.60
2018-08-30T01:20:02.332Z,25.60
2018-08-30T01:22:42.957Z,25.60
2018-08-30T01:25:23.541Z,25.60
2018-08-30T01:28:04.153Z,25.60
2018-08-30T01:30:44.702Z,25.60
2018-08-30T01:33:25.321Z,25.70
2018-08-30T01:36:05.883Z,25.70
2018-08-30T01:38:46.706Z,25.80
2018-08-30T01:41:29.280Z,25.80
2018-08-30T01:44:11.468Z,25.90
2018-08-30T01:46:52.366Z,25.90
2018-08-30T01:49:33.734Z,25.90
2018-08-30T01:52:15.007Z,26.00
2018-08-30T01:54:55.957Z,26.00
2018-08-30T01:57:37.418Z,26.00
2018-08-30T02:00:18.864Z,26.00
2018-08-30T02:02:59.534Z,26.00
2018-08-30T02:05:40.125Z,26.00
2018-08-30T02:08:20.753Z,26.00
2018-08-30T02:11:02.206Z,25.90
2018-08-30T02:13:42.963Z,25.90
2018-08-30T02:16:24.365Z,25.90
2018-08-30T02:19:05.483Z,25.90
2018-08-30T02:21:46.689Z,26.00
2018-08-30T02:24:27.554Z,26.00
2018-08-30T02:27:09.095Z,26.00
2018-08-30T02:29:50.422Z,26.00
2018-08-30T02:32:31.873Z,26.00
2018-08-30T02:35:12.673Z,25.90
2018-08-30T02:37:54.129Z,25.80
2018-08-30T02:40:34.749Z,25.80
2018-08-30T02:43:15.321Z,25.80
2018-08-30T02:45:55.898Z,25.70
2018-08-30T02:48:36.473Z,25.70
2018-08-30T02:51:17.112Z,25.70
2018-08-30T02:53:57.767Z,25.80
2018-08-30T02:56:39.400Z,25.80
2018-08-30T02:59:20.962Z,25.90
2018-08-30T03:02:02.427Z,25.90
2018-08-30T03:04:43.046Z,25.90
2018-08-30T03:07:24.645Z,25.80
2018-08-30T03:10:06.023Z,25.80
2018-08-30T03:12:46.634Z,25.70
2018-08-30T03:15:27.233Z,25.80
2018-08-30T03:18:08.162Z,25.80
2018-08-30T03:20:49.693Z,25.80
2018-08-30T03:23:30.442Z,25.80
2018-08-30T03:26:11.933Z,25.80
2018-08-30T03:28:52.712Z,25.80
2018-08-30T03:31:34.192Z,25.80
2018-08-30T03:34:14.862Z,25.80
2018-08-30T03:36:56.961Z,25.80
2018-08-30T03:39:38.168Z,25.80
2018-08-30T03:42:19.929Z,25.90
2018-08-30T03:45:01.291Z,25.90
2018-08-30T03:47:41.839Z,25.90
2018-08-30T03:50:22.541Z,25.90
2018-08-30T03:53:03.136Z,25.80
2018-08-30T03:55:43.741Z,25.80
2018-08-30T03:58:24.477Z,25.80
2018-08-30T04:01:06.011Z,25.80
2018-08-30T04:03:47.484Z,25.80
2018-08-30T04:06:28.977Z,25.70
2018-08-30T04:09:10.334Z,25.60
2018-08-30T04:11:51.377Z,25.60
2018-08-30T04:14:32.781Z,25.50
2018-08-30T04:17:14.273Z,25.50
2018-08-30T04:19:55.845Z,25.40
2018-08-30T04:22:37.350Z,25.40
2018-08-30T04:25:18.022Z,25.40
2018-08-30T04:27:59.554Z,25.30
2018-08-30T04:30:41.021Z,25.30
2018-08-30T04:33:22.463Z,25.30
2018-08-30T04:36:03.147Z,25.30
2018-08-30T04:38:44.786Z,25.30
2018-08-30T04:41:27.819Z,25.30
2018-08-30T04:44:09.010Z,25.30
2018-08-30T04:46:49.732Z,25.30
2018-08-30T04:49:31.221Z,25.40
2018-08-30T04:52:11.746Z,25.50
2018-08-30T04:54:53.211Z,25.50
2018-08-30T04:57:33.916Z,25.50
2018-08-30T05:00:14.438Z,25.50
2018-08-30T05:02:55.189Z,25.40
2018-08-30T05:05:36.568Z,25.40
2018-08-30T05:08:17.177Z,25.40
2018-08-30T05:10:57.891Z,25.30
2018-08-30T05:13:39.389Z,25.30
2018-08-30T05:16:20.078Z,25.30
2018-08-30T05:19:00.692Z,25.30
2018-08-30T05:21:41.318Z,25.30
2018-08-30T05:24:22.830Z,25.30
2018-08-30T05:27:03.523Z,25.40
2018-08-30T05:29:44.210Z,25.40
2018-08-30T05:32:25.654Z,25.40
2018-08-30T05:35:06.327Z,25.50
2018-08-30T05:37:47.882Z,25.60
2018-08-30T05:40:29.190Z,25.60
2018-08-30T05:43:10.233Z,25.70
2018-08-30T05:45:51.660Z,25.80
2018-08-30T05:48:33.218Z,25.80
2018-08-30T05:51:14.567Z,25.80
2018-08-30T05:53:55.330Z,25.80
2018-08-30T05:56:36.813Z,25.80
2018-08-30T05:59:18.314Z,25.80
2018-08-30T06:01:59.055Z,25.80
2018-08-30T06:04:39.840Z,25.90
2018-08-30T06:07:21.326Z,26.00
2018-08-30T06:10:01.808Z,26.10
2018-08-30T06:12:42.356Z,26.20
2018-08-30T06:15:22.965Z,26.30
2018-08-30T06:18:03.689Z,26.40
2018-08-30T06:20:45.090Z,26.50
2018-08-30T06:23:25.686Z,26.70
2018-08-30T06:26:06.501Z,26.80
2018-08-30T06:28:47.850Z,27.00
2018-08-30T06:31:28.621Z,27.30
2018-08-30T06:34:10.003Z,27.50
2018-08-30T06:36:52.087Z,27.60
2018-08-30T06:39:33.090Z,27.60
2018-08-30T06:42:13.693Z,27.70
2018-08-30T06:44:55.079Z,27.80
2018-08-30T06:47:36.091Z,27.80
2018-08-30T06:50:16.678Z,28.00
2018-08-30T06:52:57.412Z,28.10
2018-08-30T06:55:38.917Z,28.30
2018-08-30T06:58:20.312Z,28.50
2018-08-30T07:01:00.920Z,28.60
2018-08-30T07:03:41.478Z,28.80
2018-08-30T07:06:23.028Z,29.00
2018-08-30T07:09:03.875Z,29.10
2018-08-30T07:11:45.252Z,29.20
2018-08-30T07:14:26.015Z,29.30
2018-08-30T07:17:06.615Z,29.40
2018-08-30T07:19:47.258Z,29.50
2018-08-30T07:22:28.846Z,29.60
2018-08-30T07:25:10.180Z,29.70
2018-08-30T07:27:50.809Z,29.90
2018-08-30T07:30:31.463Z,30.10
2018-08-30T07:33:12.060Z,30.20
2018-08-30T07:35:52.699Z,30.30
2018-08-30T07:38:33.285Z,30.40
2018-08-30T07:41:14.041Z,30.40
2018-08-30T07:43:55.521Z,30.40
2018-08-30T07:46:37.055Z,30.50
2018-08-30T07:49:17.637Z,30.60
2018-08-30T07:51:59.170Z,30.60
2018-08-30T07:54:40.767Z,30.70
2018-08-30T07:57:21.351Z,30.80
2018-08-30T08:00:02.296Z,30.80
2018-08-30T08:02:43.523Z,30.80
2018-08-30T08:05:25.018Z,30.90
2018-08-30T08:08:05.701Z,31.00
2018-08-30T08:10:47.357Z,31.20
2018-08-30T08:13:28.828Z,31.40
2018-08-30T08:16:09.637Z,31.70
2018-08-30T08:18:51.127Z,32.00
2018-08-30T08:21:32.236Z,32.30
2018-08-30T08:24:13.396Z,32.60
2018-08-30T08:26:54.031Z,32.90
2018-08-30T08:29:35.555Z,33.10
2018-08-30T08:32:17.124Z,33.40
2018-08-30T08:34:58.649Z,33.60
2018-08-30T08:37:39.276Z,33.90
2018-08-30T08:40:19.872Z,34.00
2018-08-30T08:43:01.313Z,34.10
2018-08-30T08:45:42.837Z,34.20
2018-08-30T08:48:23.422Z,34.30
2018-08-30T08:51:04.120Z,34.30
2018-08-30T08:53:44.745Z,34.30
2018-08-30T08:56:25.341Z,34.10
2018-08-30T08:59:05.999Z,33.90
2018-08-30T09:01:46.986Z,33.80
2018-08-30T09:04:28.248Z,33.70
2018-08-30T09:07:08.909Z,33.50
2018-08-30T09:09:49.466Z,33.30
2018-08-30T09:12:37.618Z,33.10
2018-08-30T09:15:18.493Z,32.90
2018-08-30T09:17:59.104Z,32.90
2018-08-30T09:20:39.782Z,32.70
2018-08-30T09:23:21.232Z,32.70
2018-08-30T09:26:02.760Z,32.70
2018-08-30T09:28:43.412Z,32.80
2018-08-30T09:31:24.281Z,32.80
2018-08-30T09:34:05.602Z,32.70
2018-08-30T09:36:47.086Z,32.60
2018-08-30T09:39:28.549Z,32.60
2018-08-30T09:42:09.434Z,32.50
2018-08-30T09:44:50.108Z,32.50
2018-08-30T09:47:30.703Z,32.50
2018-08-30T09:50:12.151Z,32.50
2018-08-30T09:52:52.862Z,32.50
2018-08-30T09:55:33.574Z,32.60
2018-08-30T09:58:14.180Z,32.60
2018-08-30T10:01:00.818Z,32.60
2018-08-30T10:03:42.220Z,32.60
2018-08-30T10:06:22.784Z,32.50
2018-08-30T10:09:03.664Z,32.50
2018-08-30T10:11:45.133Z,32.50
2018-08-30T10:14:25.725Z,32.50
2018-08-30T10:17:06.401Z,32.50
2018-08-30T10:19:47.052Z,32.50
2018-08-30T10:22:27.789Z,32.50
2018-08-30T10:25:09.140Z,32.60
2018-08-30T10:27:50.249Z,32.60
2018-08-30T10:30:31.353Z,32.60
2018-08-30T10:33:11.898Z,32.70
2018-08-30T10:35:52.613Z,32.70
2018-08-30T10:38:34.067Z,32.70
2018-08-30T10:41:14.742Z,32.70
2018-08-30T10:43:55.364Z,32.70
2018-08-30T10:46:36.820Z,32.80
2018-08-30T10:49:17.524Z,32.70
2018-08-30T10:51:58.237Z,32.70
2018-08-30T10:54:40.526Z,32.70
2018-08-30T10:57:21.339Z,32.70
2018-08-30T11:00:02.763Z,32.70
2018-08-30T11:02:43.442Z,32.80
2018-08-30T11:05:24.143Z,32.80
2018-08-30T11:08:06.347Z,32.80
2018-08-30T11:10:47.194Z,32.70
2018-08-30T11:13:27.830Z,32.80
2018-08-30T11:16:08.371Z,32.70
2018-08-30T11:18:49.869Z,32.70
2018-08-30T11:21:31.410Z,32.70
2018-08-30T11:24:12.882Z,32.70
2018-08-30T11:26:54.545Z,32.70
2018-08-30T11:29:35.928Z,32.60
2018-08-30T11:32:17.579Z,32.50
2018-08-30T11:34:59.000Z,32.40
2018-08-30T11:37:40.180Z,32.40
2018-08-30T11:40:21.165Z,32.40
2018-08-30T11:43:02.740Z,32.40
2018-08-30T11:45:44.304Z,32.40
2018-08-30T11:48:25.849Z,32.50
2018-08-30T11:51:06.473Z,32.40
2018-08-30T11:53:47.301Z,32.40
2018-08-30T11:56:28.142Z,32.30
2018-08-30T11:59:09.623Z,32.30
2018-08-30T12:01:51.097Z,32.40
2018-08-30T12:04:31.622Z,32.40
2018-08-30T12:07:12.263Z,32.30
2018-08-30T12:09:52.970Z,32.40
2018-08-30T12:12:33.544Z,32.40
2018-08-30T12:15:14.132Z,32.50
2018-08-30T12:17:54.789Z,32.50
2018-08-30T12:20:35.493Z,32.50
2018-08-30T12:23:16.362Z,32.60
2018-08-30T12:25:57.899Z,32.50
2018-08-30T12:28:39.176Z,32.50
2018-08-30T12:31:21.142Z,32.50
2018-08-30T12:34:02.574Z,32.50
2018-08-30T12:36:43.421Z,32.50
2018-08-30T12:39:24.502Z,32.40
2018-08-30T12:42:05.566Z,32.40
2018-08-30T12:44:46.277Z,32.20
2018-08-30T12:47:27.585Z,32.10
2018-08-30T12:50:08.524Z,32.00
2018-08-30T12:52:49.059Z,32.00
2018-08-30T12:55:29.868Z,32.00
2018-08-30T12:58:11.491Z,32.00
2018-08-30T13:00:53.079Z,32.00
2018-08-30T13:03:34.484Z,32.00
2018-08-30T13:06:15.268Z,32.10
2018-08-30T13:08:56.336Z,32.20
2018-08-30T13:11:37.378Z,32.30
2018-08-30T13:14:19.037Z,32.40
2018-08-30T13:17:00.470Z,32.40
2018-08-30T13:19:41.256Z,32.50
2018-08-30T13:22:22.952Z,32.50
2018-08-30T13:25:04.934Z,32.40
2018-08-30T13:27:45.901Z,32.30
2018-08-30T13:30:27.592Z,32.30
2018-08-30T13:33:09.159Z,32.30
2018-08-30T13:35:50.742Z,32.30
2018-08-30T13:38:31.282Z,32.30
2018-08-30T13:41:12.025Z,32.20
2018-08-30T13:43:53.406Z,32.20
2018-08-30T13:46:35.075Z,32.10
2018-08-30T13:49:15.564Z,32.10
2018-08-30T13:51:56.324Z,32.10
2018-08-30T13:54:36.940Z,32.10
2018-08-30T13:57:18.752Z,32.10
2018-08-30T14:00:00.255Z,32.10
2018-08-30T14:02:40.611Z,32.00
2018-08-30T14:05:21.619Z,32.00
2018-08-30T14:08:02.985Z,31.80
2018-08-30T14:10:44.588Z,31.80
2018-08-30T14:13:25.171Z,31.80
2018-08-30T14:16:06.455Z,31.70
2018-08-30T14:18:47.971Z,31.70
2018-08-30T14:21:28.654Z,31.60
2018-08-30T14:24:09.342Z,31.70
2018-08-30T14:26:50.178Z,31.70
2018-08-30T14:29:32.118Z,31.70
2018-08-30T14:32:13.273Z,31.80
2018-08-30T14:34:54.810Z,31.80
2018-08-30T14:37:36.214Z,31.80
2018-08-30T14:40:18.444Z,31.70
2018-08-30T14:42:59.184Z,31.50
2018-08-30T14:45:40.125Z,31.40
2018-08-30T14:48:21.700Z,31.20
2018-08-30T14:51:03.189Z,31.20
2018-08-30T14:53:44.581Z,31.10
2018-08-30T14:56:25.969Z,31.10
2018-08-30T14:59:07.681Z,31.20
2018-08-30T15:01:48.159Z,31.10
2018-08-30T15:04:28.842Z,31.10
2018-08-30T15:07:10.361Z,31.00
2018-08-30T15:09:50.906Z,30.90
2018-08-30T15:12:31.618Z,30.80
2018-08-30T15:15:12.614Z,30.80
2018-08-30T15:17:53.841Z,30.60
2018-08-30T15:20:34.542Z,30.60
2018-08-30T15:23:15.870Z,30.40
2018-08-30T15:25:56.466Z,30.30
2018-08-30T15:28:37.098Z,30.30
2018-08-30T15:31:17.863Z,30.30
2018-08-30T15:33:58.654Z,30.20
2018-08-30T15:36:39.149Z,30.20
2018-08-30T15:39:19.887Z,30.20
2018-08-30T15:42:00.577Z,30.20
2018-08-30T15:44:41.185Z,30.20
2018-08-30T15:47:21.974Z,30.20
2018-08-30T15:50:03.284Z,30.20
2018-08-30T15:52:43.914Z,30.30
2018-08-30T15:55:24.537Z,30.30
2018-08-30T15:58:06.238Z,30.30
2018-08-30T16:00:46.829Z,30.30
2018-08-30T16:03:28.913Z,30.30
2018-08-30T16:06:10.492Z,30.30
2018-08-30T16:08:51.821Z,30.30
2018-08-30T16:11:32.449Z,30.30
2018-08-30T16:14:13.091Z,30.30
2018-08-30T16:16:53.680Z,30.30
2018-08-30T16:19:35.166Z,30.30
2018-08-30T16:22:16.685Z,30.30
2018-08-30T16:24:58.203Z,30.30
2018-08-30T16:27:38.701Z,30.20
2018-08-30T16:30:20.174Z,30.20
2018-08-30T16:33:00.834Z,30.10
2018-08-30T16:35:41.630Z,30.00
2018-08-30T16:38:22.224Z,30.00
2018-08-30T16:41:02.844Z,29.90
2018-08-30T16:43:43.357Z,29.90
2018-08-30T16:46:24.142Z,29.90
2018-08-30T16:49:04.893Z,29.80
2018-08-30T16:51:46.502Z,29.80
2018-08-30T16:54:28.025Z,29.70
2018-08-30T16:57:09.480Z,29.60
2018-08-30T16:59:50.938Z,29.50
2018-08-30T17:02:31.683Z,29.40
2018-08-30T17:05:12.252Z,29.30
2018-08-30T17:07:52.825Z,29.20
2018-08-30T17:10:33.402Z,29.10
2018-08-30T17:13:13.977Z,29.00
2018-08-30T17:15:54.677Z,28.90
2018-08-30T17:18:35.405Z,28.90
2018-08-30T17:21:16.843Z,28.80
2018-08-30T17:23:57.945Z,28.70
2018-08-30T17:26:39.102Z,28.70
2018-08-30T17:29:20.466Z,28.60
2018-08-30T17:32:01.427Z,28.60
2018-08-30T17:34:42.888Z,28.50
2018-08-30T17:37:23.638Z,28.40
2018-08-30T17:40:05.122Z,28.40
2018-08-30T17:42:46.767Z,28.40
2018-08-30T17:45:28.307Z,28.40
2018-08-30T17:48:08.882Z,28.40
2018-08-30T17:50:51.002Z,28.30
2018-08-30T17:53:32.132Z,28.30
2018-08-30T17:56:13.613Z,28.30
2018-08-30T17:58:54.271Z,28.20
2018-08-30T18:01:35.801Z,28.20
2018-08-30T18:04:17.372Z,28.10
2018-08-30T18:06:59.083Z,28.10
2018-08-30T18:09:40.492Z,28.10
2018-08-30T18:12:21.102Z,27.90
2018-08-30T18:15:01.684Z,27.90
2018-08-30T18:17:42.375Z,27.80
2018-08-30T18:20:25.845Z,27.80
2018-08-30T18:23:06.466Z,27.80
2018-08-30T18:25:47.098Z,27.70
2018-08-30T18:28:29.012Z,27.70
2018-08-30T18:31:10.310Z,27.60
2018-08-30T18:33:51.823Z,27.60
2018-08-30T18:36:33.394Z,27.60
2018-08-30T18:39:14.098Z,27.50
2018-08-30T18:41:54.728Z,27.50
2018-08-30T18:44:36.369Z,27.40
2018-08-30T18:47:17.853Z,27.40
2018-08-30T18:50:00.149Z,27.40
2018-08-30T18:52:41.467Z,27.30
2018-08-30T18:55:22.506Z,27.30
2018-08-30T18:58:03.346Z,27.30
2018-08-30T19:00:44.800Z,27.30
2018-08-30T19:03:26.331Z,27.20
2018-08-30T19:06:07.189Z,27.20
2018-08-30T19:08:48.666Z,27.20
2018-08-30T19:11:29.248Z,27.20
2018-08-30T19:14:10.911Z,27.20
2018-08-30T19:16:57.414Z,27.20
2018-08-30T19:19:38.848Z,27.20
2018-08-30T19:22:20.379Z,27.10
2018-08-30T19:25:05.980Z,27.20
2018-08-30T19:27:46.705Z,27.10
2018-08-30T19:30:29.597Z,27.10
2018-08-30T19:33:10.771Z,27.20
2018-08-30T19:35:56.503Z,27.10
2018-08-30T19:38:37.957Z,27.20
2018-08-30T19:41:21.265Z,27.20
2018-08-30T19:44:01.937Z,27.10
2018-08-30T19:46:42.530Z,27.10
2018-08-30T19:49:24.409Z,27.20
2018-08-30T19:52:05.508Z,27.20
2018-08-30T19:54:46.177Z,27.10
2018-08-30T19:57:26.717Z,27.10
2018-08-30T20:00:07.339Z,27.00
2018-08-30T20:02:47.946Z,27.00
2018-08-30T20:05:28.601Z,27.00
2018-08-30T20:08:10.869Z,27.00
2018-08-30T20:10:51.699Z,27.00
2018-08-30T20:13:33.170Z,27.00
2018-08-30T20:16:13.854Z,27.00
2018-08-30T20:18:55.354Z,27.00
2018-08-30T20:21:36.237Z,27.00
2018-08-30T20:24:17.606Z,27.00
2018-08-30T20:26:58.338Z,27.00
2018-08-30T20:29:39.799Z,27.00
2018-08-30T20:32:20.630Z,27.00
2018-08-30T20:35:01.385Z,27.00
2018-08-30T20:37:42.293Z,27.00
2018-08-30T20:40:23.521Z,27.10
2018-08-30T20:43:04.141Z,27.10
2018-08-30T20:45:45.551Z,27.10
2018-08-30T20:48:26.382Z,27.10
2018-08-30T20:51:07.789Z,27.20
2018-08-30T20:53:48.430Z,27.20
2018-08-30T20:56:29.464Z,27.30
2018-08-30T20:59:10.593Z,27.20
2018-08-30T21:01:51.307Z,27.20
2018-08-30T21:04:31.959Z,27.30
2018-08-30T21:07:13.410Z,27.20
2018-08-30T21:09:54.914Z,27.20
2018-08-30T21:12:36.446Z,27.20
2018-08-30T21:15:17.909Z,27.20
2018-08-30T21:17:59.878Z,27.20
2018-08-30T21:20:40.831Z,27.20
2018-08-30T21:23:21.461Z,27.20
2018-08-30T21:26:02.113Z,27.20
2018-08-30T21:28:42.721Z,27.20
2018-08-30T21:31:23.305Z,27.10
2018-08-30T21:34:03.882Z,27.10
2018-08-30T21:36:44.640Z,27.00
2018-08-30T21:39:25.250Z,27.00
2018-08-30T21:42:05.836Z,27.10
2018-08-30T21:44:46.493Z,27.00
2018-08-30T21:47:27.156Z,27.00
2018-08-30T21:50:07.778Z,27.00
2018-08-30T21:52:49.271Z,27.00
2018-08-30T21:55:29.802Z,27.00
2018-08-30T21:58:10.462Z,27.00
2018-08-30T22:00:52.167Z,26.90
2018-08-30T22:03:33.406Z,27.00
2018-08-30T22:06:14.641Z,26.90
2018-08-30T22:08:55.838Z,26.90
2018-08-30T22:11:37.364Z,26.90
2018-08-30T22:14:18.052Z,26.80
2018-08-30T22:16:58.695Z,26.80
2018-08-30T22:19:40.149Z,26.80
2018-08-30T22:22:21.061Z,26.80
2018-08-30T22:25:02.421Z,26.80
2018-08-30T22:27:43.962Z,26.80
2018-08-30T22:30:24.641Z,26.80
2018-08-30T22:33:05.307Z,26.80
2018-08-30T22:35:46.038Z,26.80
2018-08-30T22:38:27.477Z,26.80
2018-08-30T22:41:08.193Z,26.80
2018-08-30T22:43:49.625Z,26.80
2018-08-30T22:46:30.273Z,26.70
2018-08-30T22:49:11.785Z,26.80
2018-08-30T22:51:53.171Z,26.80
2018-08-30T22:54:33.837Z,26.80
2018-08-30T22:57:14.757Z,26.80
2018-08-30T22:59:56.014Z,26.80
2018-08-30T23:02:36.652Z,26.80
2018-08-30T23:05:18.045Z,26.80
2018-08-30T23:07:59.571Z,26.80
2018-08-30T23:10:40.098Z,26.80
2018-08-30T23:13:20.632Z,26.80
2018-08-30T23:16:01.352Z,26.80
2018-08-30T23:18:42.063Z,26.70
2018-08-30T23:21:23.426Z,26.80
2018-08-30T23:24:04.133Z,26.80
2018-08-30T23:26:44.681Z,26.80
2018-08-30T23:29:25.560Z,26.80
2018-08-30T23:32:06.864Z,26.80
2018-08-30T23:34:48.704Z,26.80
2018-08-30T23:37:29.909Z,26.90
2018-08-30T23:40:11.334Z,26.80
2018-08-30T23:42:52.231Z,26.80
2018-08-30T23:45:33.416Z,26.80
2018-08-30T23:48:14.035Z,26.80
2018-08-30T23:50:55.884Z,26.80
2018-08-30T23:53:37.032Z,26.70
2018-08-30T23:56:17.641Z,26.70
2018-08-30T23:58:58.513Z,26.60
